Jean Anne — WDC3786 — position and weather

sailwx.info

Track history (hours):
 
Tides and Currents Weather Stations Pressure Air Temp Water Temp Dewpoint Dewpoint Depression Visibility Wind Speed Wind Dir Waves Ship Positions

Jean Anne

Owner: PASHA HAWAII TRANSPORT LINES LLC, National City, CA. More information available from US FCC via Universal Licensing System and Coast Guard Vessel Documentation Center.

Last reported at 2017-Apr-24 00:00 UTC. Time now 2017-Apr-28 23:51 UTC.
Position N 25°42' W 140°00'.

Type: Cargo ship. MMSI: 367003380.

Wind from 360 at 17 knots

Barometer 1022.8 mb
Air temperature 23.6 ° C
Visibility: greater than 10.8 NM
Dewpoint 15.9 ° C

Date/timePositionNaut miles runAvg speedWind from/ knotsBaromVisibWave heightAir tempDewpointWater temp
2017-Apr-24 00:00N 25°42' W 140°00'11719.5 360 / 171022.810.8 23.615.9
2017-Apr-23 18:00N 26°12' W 137°54'57719.1 070 / 161024.010.8 22.015.4
2017-Apr-22 11:45N 28°53' W 127°30'519.3
2017-Apr-22 11:30N 28°55' W 127°24'1019.3
2017-Apr-22 11:00N 28°57' W 127°14'1019.1
2017-Apr-22 10:30N 28°60' W 127°03'1519.3
2017-Apr-22 09:43N 29°04' W 126°47'419.3
2017-Apr-22 09:29N 29°05' W 126°42'1019.4
2017-Apr-22 09:00N 29°08' W 126°31'1019.4
2017-Apr-22 08:30N 29°10' W 126°21'919.1
2017-Apr-22 08:00N 29°13' W 126°10'1019.3
2017-Apr-22 07:30N 29°15' W 125°60'1019.5
2017-Apr-22 07:01N 29°18' W 125°49'1019.3
2017-Apr-22 06:30N 29°21' W 125°38'1019.2
2017-Apr-22 06:01N 29°23' W 125°28'1019.2
2017-Apr-22 05:31N 29°26' W 125°17'1019.0
2017-Apr-22 05:00N 29°28' W 125°06'919.3
2017-Apr-22 04:30N 29°31' W 124°56'919.0
2017-Apr-22 04:00N 29°34' W 124°45'918.8
2017-Apr-22 03:30N 29°36' W 124°35'918.6
2017-Apr-22 03:00N 29°39' W 124°24'918.5
2017-Apr-22 02:30N 29°41' W 124°14'918.4
2017-Apr-22 02:00N 29°44' W 124°04'714.8
2017-Apr-22 01:30N 29°45' W 123°56'1 2.9
2017-Apr-22 01:00N 29°45' W 123°54'1 1.0
2017-Apr-22 00:30N 29°46' W 123°54'1 1.1
2017-Apr-22 00:00N 29°46' W 123°54'5 9.8
2017-Apr-21 23:30N 29°47' W 123°48'918.3
2017-Apr-21 23:00N 29°50' W 123°38'1018.3
2017-Apr-21 22:26N 29°53' W 123°27'918.4
2017-Apr-21 21:58N 29°55' W 123°17'3618.2
2017-Apr-21 19:58N 30°05' W 122°36'1117.8
2017-Apr-21 19:22N 30°08' W 122°25'717.8
2017-Apr-21 19:00N 30°09' W 122°17'917.8
2017-Apr-21 18:30N 30°12' W 122°07'917.4
2017-Apr-21 18:00N 30°14' W 121°58'917.4
2017-Apr-21 17:30N 30°17' W 121°48'4517.7
2017-Apr-21 14:59N 30°29' W 120°58'817.9
2017-Apr-21 14:31N 30°31' W 120°49'1818.2
2017-Apr-21 13:30N 30°36' W 120°28'918.1
2017-Apr-21 13:00N 30°38' W 120°18'918.2
2017-Apr-21 12:30N 30°41' W 120°08'918.1
2017-Apr-21 12:00N 30°43' W 119°58'918.3
2017-Apr-21 11:30N 30°46' W 119°47'918.3
2017-Apr-21 11:00N 30°48' W 119°37'1418.1
2017-Apr-21 10:12N 30°52' W 119°21'417.9
2017-Apr-21 09:58N 30°53' W 119°16'917.9
2017-Apr-21 09:29N 30°55' W 119°06'918.0
2017-Apr-21 09:00N 30°58' W 118°57'2917.4
2017-Apr-21 07:20N 31°12' W 118°27'619.0
2017-Apr-21 07:00N 31°17' W 118°23'1119.3
2017-Apr-21 06:27N 31°26' W 118°16'919.3
2017-Apr-21 06:00N 31°33' W 118°10'1019.5
2017-Apr-21 05:30N 31°41' W 118°03'1119.3
2017-Apr-21 04:57N 31°49' W 117°56'919.4
2017-Apr-21 04:30N 31°56' W 117°50'1119.5
2017-Apr-21 03:56N 32°05' W 117°42'818.9
2017-Apr-21 03:30N 32°12' W 117°36'816.0
2017-Apr-21 03:01N 32°18' W 117°31'816.0
2017-Apr-21 02:30N 32°25' W 117°25'815.7
2017-Apr-21 02:00N 32°31' W 117°20'815.4
2017-Apr-21 01:30N 32°37' W 117°14'611.1
2017-Apr-21 01:00N 32°43' W 117°13'5 9.8
2017-Apr-21 00:30N 32°40' W 117°08'1 0.0
2017-Apr-19 16:20N 32°39' W 117°07'0 0.0
2017-Apr-19 13:46N 32°39' W 117°07'4 7.8
2017-Apr-19 13:14N 32°43' W 117°11'2 9.6
2017-Apr-19 13:01N 32°43' W 117°13'510.0
2017-Apr-19 12:30N 32°38' W 117°14'3 5.4
2017-Apr-19 11:59N 32°35' W 117°15'2 4.7
2017-Apr-19 11:30N 32°34' W 117°17'815.6
2017-Apr-19 11:00N 32°27' W 117°23'715.2
2017-Apr-19 10:31N 32°21' W 117°28'714.8
2017-Apr-19 10:00N 32°15' W 117°33'816.2
2017-Apr-19 09:30N 32°09' W 117°39'1017.7
2017-Apr-19 08:57N 32°01' W 117°46'817.5
2017-Apr-19 08:28N 31°54' W 117°52'1017.5
2017-Apr-19 07:53N 31°46' W 117°59'1017.6
2017-Apr-19 07:19N 31°38' W 118°06'818.0
2017-Apr-19 06:51N 31°31' W 118°11'617.8
2017-Apr-19 06:30N 31°26' W 118°16'918.0
2017-Apr-19 05:59N 31°18' W 118°22'917.8
2017-Apr-19 05:29N 31°11' W 118°28'1616.7
2017-Apr-19 04:30N 31°01' W 118°44'917.5
2017-Apr-19 04:00N 30°60' W 118°54'  
2017-Apr-16 18:00N 26°00' W 139°12'35019.4 200 / 101016.010.8 23.019.1
2017-Apr-16 00:00N 23°54' W 145°12'   320 / 81016.010.8 28.527.7
Track history (hours):
 
Tides and Currents Weather Stations Pressure Air Temp Water Temp Dewpoint Dewpoint Depression Visibility Wind Speed Wind Dir Waves Ship Positions

Jean Anne

Owner: PASHA HAWAII TRANSPORT LINES LLC, National City, CA. More information available from US FCC via Universal Licensing System and Coast Guard Vessel Documentation Center.

Last reported at 2017-Apr-24 00:00 UTC. Time now 2017-Apr-28 23:51 UTC.
Position N 25°42' W 140°00'.

Type: Cargo ship. MMSI: 367003380.

Wind from 360 at 17 knots

Barometer 1022.8 mb
Air temperature 23.6 ° C
Visibility: greater than 10.8 NM
Dewpoint 15.9 ° C

Date/timePositionNaut miles runAvg speedWind from/ knotsBaromVisibWave heightAir tempDewpointWater temp
2017-Apr-24 00:00N 25°42' W 140°00'11719.5 360 / 171022.810.8 23.615.9
2017-Apr-23 18:00N 26°12' W 137°54'57719.1 070 / 161024.010.8 22.015.4
2017-Apr-22 11:45N 28°53' W 127°30'519.3
2017-Apr-22 11:30N 28°55' W 127°24'1019.3
2017-Apr-22 11:00N 28°57' W 127°14'1019.1
2017-Apr-22 10:30N 28°60' W 127°03'1519.3
2017-Apr-22 09:43N 29°04' W 126°47'419.3
2017-Apr-22 09:29N 29°05' W 126°42'1019.4
2017-Apr-22 09:00N 29°08' W 126°31'1019.4
2017-Apr-22 08:30N 29°10' W 126°21'919.1
2017-Apr-22 08:00N 29°13' W 126°10'1019.3
2017-Apr-22 07:30N 29°15' W 125°60'1019.5
2017-Apr-22 07:01N 29°18' W 125°49'1019.3
2017-Apr-22 06:30N 29°21' W 125°38'1019.2
2017-Apr-22 06:01N 29°23' W 125°28'1019.2
2017-Apr-22 05:31N 29°26' W 125°17'1019.0
2017-Apr-22 05:00N 29°28' W 125°06'919.3
2017-Apr-22 04:30N 29°31' W 124°56'919.0
2017-Apr-22 04:00N 29°34' W 124°45'918.8
2017-Apr-22 03:30N 29°36' W 124°35'918.6
2017-Apr-22 03:00N 29°39' W 124°24'918.5
2017-Apr-22 02:30N 29°41' W 124°14'918.4
2017-Apr-22 02:00N 29°44' W 124°04'714.8
2017-Apr-22 01:30N 29°45' W 123°56'1 2.9
2017-Apr-22 01:00N 29°45' W 123°54'1 1.0
2017-Apr-22 00:30N 29°46' W 123°54'1 1.1
2017-Apr-22 00:00N 29°46' W 123°54'5 9.8
2017-Apr-21 23:30N 29°47' W 123°48'918.3
2017-Apr-21 23:00N 29°50' W 123°38'1018.3
2017-Apr-21 22:26N 29°53' W 123°27'918.4
2017-Apr-21 21:58N 29°55' W 123°17'3618.2
2017-Apr-21 19:58N 30°05' W 122°36'1117.8
2017-Apr-21 19:22N 30°08' W 122°25'717.8
2017-Apr-21 19:00N 30°09' W 122°17'917.8
2017-Apr-21 18:30N 30°12' W 122°07'917.4
2017-Apr-21 18:00N 30°14' W 121°58'917.4
2017-Apr-21 17:30N 30°17' W 121°48'4517.7
2017-Apr-21 14:59N 30°29' W 120°58'817.9
2017-Apr-21 14:31N 30°31' W 120°49'1818.2
2017-Apr-21 13:30N 30°36' W 120°28'918.1
2017-Apr-21 13:00N 30°38' W 120°18'918.2
2017-Apr-21 12:30N 30°41' W 120°08'918.1
2017-Apr-21 12:00N 30°43' W 119°58'918.3
2017-Apr-21 11:30N 30°46' W 119°47'918.3
2017-Apr-21 11:00N 30°48' W 119°37'1418.1
2017-Apr-21 10:12N 30°52' W 119°21'417.9
2017-Apr-21 09:58N 30°53' W 119°16'917.9
2017-Apr-21 09:29N 30°55' W 119°06'918.0
2017-Apr-21 09:00N 30°58' W 118°57'2917.4
2017-Apr-21 07:20N 31°12' W 118°27'619.0
2017-Apr-21 07:00N 31°17' W 118°23'1119.3
2017-Apr-21 06:27N 31°26' W 118°16'919.3
2017-Apr-21 06:00N 31°33' W 118°10'1019.5
2017-Apr-21 05:30N 31°41' W 118°03'1119.3
2017-Apr-21 04:57N 31°49' W 117°56'919.4
2017-Apr-21 04:30N 31°56' W 117°50'1119.5
2017-Apr-21 03:56N 32°05' W 117°42'818.9
2017-Apr-21 03:30N 32°12' W 117°36'816.0
2017-Apr-21 03:01N 32°18' W 117°31'816.0
2017-Apr-21 02:30N 32°25' W 117°25'815.7
2017-Apr-21 02:00N 32°31' W 117°20'815.4
2017-Apr-21 01:30N 32°37' W 117°14'611.1
2017-Apr-21 01:00N 32°43' W 117°13'5 9.8
2017-Apr-21 00:30N 32°40' W 117°08'1 0.0
2017-Apr-19 16:20N 32°39' W 117°07'0 0.0
2017-Apr-19 13:46N 32°39' W 117°07'4 7.8
2017-Apr-19 13:14N 32°43' W 117°11'2 9.6
2017-Apr-19 13:01N 32°43' W 117°13'510.0
2017-Apr-19 12:30N 32°38' W 117°14'3 5.4
2017-Apr-19 11:59N 32°35' W 117°15'2 4.7
2017-Apr-19 11:30N 32°34' W 117°17'815.6
2017-Apr-19 11:00N 32°27' W 117°23'715.2
2017-Apr-19 10:31N 32°21' W 117°28'714.8
2017-Apr-19 10:00N 32°15' W 117°33'816.2
2017-Apr-19 09:30N 32°09' W 117°39'1017.7
2017-Apr-19 08:57N 32°01' W 117°46'817.5
2017-Apr-19 08:28N 31°54' W 117°52'1017.5
2017-Apr-19 07:53N 31°46' W 117°59'1017.6
2017-Apr-19 07:19N 31°38' W 118°06'818.0
2017-Apr-19 06:51N 31°31' W 118°11'617.8
2017-Apr-19 06:30N 31°26' W 118°16'918.0
2017-Apr-19 05:59N 31°18' W 118°22'917.8
2017-Apr-19 05:29N 31°11' W 118°28'1616.7
2017-Apr-19 04:30N 31°01' W 118°44'917.5
2017-Apr-19 04:00N 30°60' W 118°54'  
2017-Apr-16 18:00N 26°00' W 139°12'35019.4 200 / 101016.010.8 23.019.1
2017-Apr-16 00:00N 23°54' W 145°12'   320 / 81016.010.8 28.527.7

Dump ship's entire track history